sensor_id;sensor_type;location;lat;lon;timestamp;temperature;humidity
4874;DHT22;2451;49.970;9.068;2023-12-07T00:01:09;2.90;99.90
4874;DHT22;2451;49.970;9.068;2023-12-07T00:03:35;2.90;99.90
4874;DHT22;2451;49.970;9.068;2023-12-07T00:06:00;2.90;99.90
4874;DHT22;2451;49.970;9.068;2023-12-07T00:08:26;2.90;99.90
4874;DHT22;2451;49.970;9.068;2023-12-07T00:10:51;2.90;99.90
4874;DHT22;2451;49.970;9.068;2023-12-07T00:13:17;2.90;99.90
4874;DHT22;2451;49.970;9.068;2023-12-07T00:15:43;2.80;99.90
4874;DHT22;2451;49.970;9.068;2023-12-07T00:18:09;2.80;99.90
4874;DHT22;2451;49.970;9.068;2023-12-07T00:20:34;2.90;99.90
4874;DHT22;2451;49.970;9.068;2023-12-07T00:23:00;2.90;99.90
4874;DHT22;2451;49.970;9.068;2023-12-07T00:25:25;2.90;99.90
4874;DHT22;2451;49.970;9.068;2023-12-07T00:27:51;2.90;99.90
4874;DHT22;2451;49.970;9.068;2023-12-07T00:30:17;2.90;99.90
4874;DHT22;2451;49.970;9.068;2023-12-07T00:32:43;2.90;99.90
4874;DHT22;2451;49.970;9.068;2023-12-07T00:35:10;2.90;99.90
4874;DHT22;2451;49.970;9.068;2023-12-07T00:37:36;2.90;99.90
4874;DHT22;2451;49.970;9.068;2023-12-07T00:40:01;2.90;99.90
4874;DHT22;2451;49.970;9.068;2023-12-07T00:42:27;2.90;99.90
4874;DHT22;2451;49.970;9.068;2023-12-07T00:44:53;2.90;99.90
4874;DHT22;2451;49.970;9.068;2023-12-07T00:47:19;2.90;99.90
4874;DHT22;2451;49.970;9.068;2023-12-07T00:49:44;2.90;99.90
4874;DHT22;2451;49.970;9.068;2023-12-07T00:52:10;2.90;99.90
4874;DHT22;2451;49.970;9.068;2023-12-07T00:54:35;2.90;99.90
4874;DHT22;2451;49.970;9.068;2023-12-07T00:57:01;2.90;99.90
4874;DHT22;2451;49.970;9.068;2023-12-07T00:59:26;2.90;99.90
4874;DHT22;2451;49.970;9.068;2023-12-07T01:01:52;2.90;99.90
4874;DHT22;2451;49.970;9.068;2023-12-07T01:04:17;2.90;99.90
4874;DHT22;2451;49.970;9.068;2023-12-07T01:06:43;2.80;99.90
4874;DHT22;2451;49.970;9.068;2023-12-07T01:09:09;2.80;99.90
4874;DHT22;2451;49.970;9.068;2023-12-07T01:11:39;2.80;99.90
4874;DHT22;2451;49.970;9.068;2023-12-07T01:14:07;2.80;99.90
4874;DHT22;2451;49.970;9.068;2023-12-07T01:16:32;2.70;99.90
4874;DHT22;2451;49.970;9.068;2023-12-07T01:18:58;2.70;99.90
4874;DHT22;2451;49.970;9.068;2023-12-07T01:21:24;2.70;99.90
4874;DHT22;2451;49.970;9.068;2023-12-07T01:23:49;2.70;99.90
4874;DHT22;2451;49.970;9.068;2023-12-07T01:26:15;2.70;99.90
4874;DHT22;2451;49.970;9.068;2023-12-07T01:28:40;2.70;99.90
4874;DHT22;2451;49.970;9.068;2023-12-07T01:31:06;2.70;99.90
4874;DHT22;2451;49.970;9.068;2023-12-07T01:33:31;2.60;99.90
4874;DHT22;2451;49.970;9.068;2023-12-07T01:35:57;2.60;99.90
4874;DHT22;2451;49.970;9.068;2023-12-07T01:38:22;2.50;99.90
4874;DHT22;2451;49.970;9.068;2023-12-07T01:40:48;2.50;99.90
4874;DHT22;2451;49.970;9.068;2023-12-07T01:43:14;2.50;99.90
4874;DHT22;2451;49.970;9.068;2023-12-07T01:45:39;2.40;99.90
4874;DHT22;2451;49.970;9.068;2023-12-07T01:48:06;2.40;99.90
4874;DHT22;2451;49.970;9.068;2023-12-07T01:50:32;2.40;99.90
4874;DHT22;2451;49.970;9.068;2023-12-07T01:53:01;2.30;99.90
4874;DHT22;2451;49.970;9.068;2023-12-07T01:55:27;2.30;99.90
4874;DHT22;2451;49.970;9.068;2023-12-07T01:57:54;2.20;99.90
4874;DHT22;2451;49.970;9.068;2023-12-07T02:00:20;2.20;99.90
4874;DHT22;2451;49.970;9.068;2023-12-07T02:02:46;2.20;99.90
4874;DHT22;2451;49.970;9.068;2023-12-07T02:05:13;2.10;99.90
4874;DHT22;2451;49.970;9.068;2023-12-07T02:07:41;2.10;99.90
4874;DHT22;2451;49.970;9.068;2023-12-07T02:10:07;1.90;99.90
4874;DHT22;2451;49.970;9.068;2023-12-07T02:12:33;1.90;99.90
4874;DHT22;2451;49.970;9.068;2023-12-07T02:15:01;1.80;99.90
4874;DHT22;2451;49.970;9.068;2023-12-07T02:17:34;1.80;99.90
4874;DHT22;2451;49.970;9.068;2023-12-07T02:22:47;1.70;99.90
4874;DHT22;2451;49.970;9.068;2023-12-07T02:25:14;1.60;99.90
4874;DHT22;2451;49.970;9.068;2023-12-07T02:27:43;1.60;99.90
4874;DHT22;2451;49.970;9.068;2023-12-07T02:30:11;1.50;99.90
4874;DHT22;2451;49.970;9.068;2023-12-07T02:32:42;1.60;99.90
4874;DHT22;2451;49.970;9.068;2023-12-07T02:35:09;1.60;99.90
4874;DHT22;2451;49.970;9.068;2023-12-07T02:37:46;1.50;99.90
4874;DHT22;2451;49.970;9.068;2023-12-07T02:40:17;1.50;99.90
4874;DHT22;2451;49.970;9.068;2023-12-07T02:42:43;1.60;99.90
4874;DHT22;2451;49.970;9.068;2023-12-07T02:45:11;1.60;99.90
4874;DHT22;2451;49.970;9.068;2023-12-07T02:47:38;1.60;99.90
4874;DHT22;2451;49.970;9.068;2023-12-07T02:50:05;1.60;99.90
4874;DHT22;2451;49.970;9.068;2023-12-07T02:52:32;1.60;99.90
4874;DHT22;2451;49.970;9.068;2023-12-07T02:54:57;1.60;99.90
4874;DHT22;2451;49.970;9.068;2023-12-07T02:57:23;1.60;99.90
4874;DHT22;2451;49.970;9.068;2023-12-07T02:59:48;1.60;99.90
4874;DHT22;2451;49.970;9.068;2023-12-07T03:02:14;1.60;99.90
4874;DHT22;2451;49.970;9.068;2023-12-07T03:04:39;1.60;99.90
4874;DHT22;2451;49.970;9.068;2023-12-07T03:07:05;1.50;99.90
4874;DHT22;2451;49.970;9.068;2023-12-07T03:09:30;1.50;99.90
4874;DHT22;2451;49.970;9.068;2023-12-07T03:11:56;1.50;99.90
4874;DHT22;2451;49.970;9.068;2023-12-07T03:14:21;1.40;99.90
4874;DHT22;2451;49.970;9.068;2023-12-07T03:16:47;1.40;99.90
4874;DHT22;2451;49.970;9.068;2023-12-07T03:19:12;1.40;99.90
4874;DHT22;2451;49.970;9.068;2023-12-07T03:21:41;1.40;99.90
4874;DHT22;2451;49.970;9.068;2023-12-07T03:24:08;1.40;99.90
4874;DHT22;2451;49.970;9.068;2023-12-07T03:26:34;1.30;99.90
4874;DHT22;2451;49.970;9.068;2023-12-07T03:29:00;1.30;99.90
4874;DHT22;2451;49.970;9.068;2023-12-07T03:31:25;1.20;99.90
4874;DHT22;2451;49.970;9.068;2023-12-07T03:33:51;1.20;99.90
4874;DHT22;2451;49.970;9.068;2023-12-07T03:36:16;1.10;99.90
4874;DHT22;2451;49.970;9.068;2023-12-07T03:38:42;1.10;99.90
4874;DHT22;2451;49.970;9.068;2023-12-07T03:41:08;1.00;99.90
4874;DHT22;2451;49.970;9.068;2023-12-07T03:43:33;1.00;99.90
4874;DHT22;2451;49.970;9.068;2023-12-07T03:45:59;0.90;99.90
4874;DHT22;2451;49.970;9.068;2023-12-07T03:48:24;0.90;99.90
4874;DHT22;2451;49.970;9.068;2023-12-07T03:50:50;0.90;99.90
4874;DHT22;2451;49.970;9.068;2023-12-07T03:53:15;0.80;99.90
4874;DHT22;2451;49.970;9.068;2023-12-07T03:55:41;0.80;99.90
4874;DHT22;2451;49.970;9.068;2023-12-07T03:58:07;0.80;99.90
4874;DHT22;2451;49.970;9.068;2023-12-07T04:00:32;0.70;99.90
4874;DHT22;2451;49.970;9.068;2023-12-07T04:02:58;0.70;99.90
4874;DHT22;2451;49.970;9.068;2023-12-07T04:05:23;0.60;99.90
4874;DHT22;2451;49.970;9.068;2023-12-07T04:07:49;0.60;99.90
4874;DHT22;2451;49.970;9.068;2023-12-07T04:10:15;0.60;99.90
4874;DHT22;2451;49.970;9.068;2023-12-07T04:12:41;0.70;99.90
4874;DHT22;2451;49.970;9.068;2023-12-07T04:15:07;0.60;99.90
4874;DHT22;2451;49.970;9.068;2023-12-07T04:17:32;0.60;99.90
4874;DHT22;2451;49.970;9.068;2023-12-07T04:19:58;0.60;99.90
4874;DHT22;2451;49.970;9.068;2023-12-07T04:22:24;0.60;99.90
4874;DHT22;2451;49.970;9.068;2023-12-07T04:24:49;0.60;99.90
4874;DHT22;2451;49.970;9.068;2023-12-07T04:27:15;0.60;99.90
4874;DHT22;2451;49.970;9.068;2023-12-07T04:29:40;0.60;99.90
4874;DHT22;2451;49.970;9.068;2023-12-07T04:32:07;0.60;99.90
4874;DHT22;2451;49.970;9.068;2023-12-07T04:34:32;0.60;99.90
4874;DHT22;2451;49.970;9.068;2023-12-07T04:36:58;0.50;99.90
4874;DHT22;2451;49.970;9.068;2023-12-07T04:39:23;0.50;99.90
4874;DHT22;2451;49.970;9.068;2023-12-07T04:41:49;0.40;99.90
4874;DHT22;2451;49.970;9.068;2023-12-07T04:44:14;0.40;99.90
4874;DHT22;2451;49.970;9.068;2023-12-07T04:46:41;0.40;99.90
4874;DHT22;2451;49.970;9.068;2023-12-07T04:49:07;0.40;99.90
4874;DHT22;2451;49.970;9.068;2023-12-07T04:51:33;0.40;99.90
4874;DHT22;2451;49.970;9.068;2023-12-07T04:53:58;0.40;99.90
4874;DHT22;2451;49.970;9.068;2023-12-07T04:56:23;0.40;99.90
4874;DHT22;2451;49.970;9.068;2023-12-07T04:58:49;0.40;99.90
4874;DHT22;2451;49.970;9.068;2023-12-07T05:01:14;0.50;99.90
4874;DHT22;2451;49.970;9.068;2023-12-07T05:03:40;0.40;99.90
4874;DHT22;2451;49.970;9.068;2023-12-07T05:06:06;0.40;99.90
4874;DHT22;2451;49.970;9.068;2023-12-07T05:08:33;0.40;99.90
4874;DHT22;2451;49.970;9.068;2023-12-07T05:10:58;0.40;99.90
4874;DHT22;2451;49.970;9.068;2023-12-07T05:13:24;0.40;99.90
4874;DHT22;2451;49.970;9.068;2023-12-07T05:15:49;0.40;99.90
4874;DHT22;2451;49.970;9.068;2023-12-07T05:18:15;0.40;99.90
4874;DHT22;2451;49.970;9.068;2023-12-07T05:20:40;0.40;99.90
4874;DHT22;2451;49.970;9.068;2023-12-07T05:23:06;0.40;99.90
4874;DHT22;2451;49.970;9.068;2023-12-07T05:25:32;0.40;99.90
4874;DHT22;2451;49.970;9.068;2023-12-07T05:27:58;0.40;99.90
4874;DHT22;2451;49.970;9.068;2023-12-07T05:30:23;0.40;99.90
4874;DHT22;2451;49.970;9.068;2023-12-07T05:32:49;0.30;99.90
4874;DHT22;2451;49.970;9.068;2023-12-07T05:35:15;0.30;99.90
4874;DHT22;2451;49.970;9.068;2023-12-07T05:37:41;0.30;99.90
4874;DHT22;2451;49.970;9.068;2023-12-07T05:40:07;0.40;99.90
4874;DHT22;2451;49.970;9.068;2023-12-07T05:42:33;0.40;99.90
4874;DHT22;2451;49.970;9.068;2023-12-07T05:44:59;0.40;99.90
4874;DHT22;2451;49.970;9.068;2023-12-07T05:47:25;0.40;99.90
4874;DHT22;2451;49.970;9.068;2023-12-07T05:49:51;0.40;99.90
4874;DHT22;2451;49.970;9.068;2023-12-07T05:52:17;0.40;99.90
4874;DHT22;2451;49.970;9.068;2023-12-07T05:54:42;0.40;99.90
4874;DHT22;2451;49.970;9.068;2023-12-07T05:57:08;0.40;99.90
4874;DHT22;2451;49.970;9.068;2023-12-07T05:59:37;0.50;99.90
4874;DHT22;2451;49.970;9.068;2023-12-07T06:02:07;0.50;99.90
4874;DHT22;2451;49.970;9.068;2023-12-07T06:04:32;0.50;99.90
4874;DHT22;2451;49.970;9.068;2023-12-07T06:06:58;0.50;99.90
4874;DHT22;2451;49.970;9.068;2023-12-07T06:09:23;0.50;99.90
4874;DHT22;2451;49.970;9.068;2023-12-07T06:11:49;0.60;99.90
4874;DHT22;2451;49.970;9.068;2023-12-07T06:14:14;0.60;99.90
4874;DHT22;2451;49.970;9.068;2023-12-07T06:16:40;0.60;99.90
4874;DHT22;2451;49.970;9.068;2023-12-07T06:19:05;0.60;99.90
4874;DHT22;2451;49.970;9.068;2023-12-07T06:21:31;0.60;99.90
4874;DHT22;2451;49.970;9.068;2023-12-07T06:23:57;0.60;99.90
4874;DHT22;2451;49.970;9.068;2023-12-07T06:26:24;0.60;99.90
4874;DHT22;2451;49.970;9.068;2023-12-07T06:28:50;0.60;99.90
4874;DHT22;2451;49.970;9.068;2023-12-07T06:31:15;0.60;99.90
4874;DHT22;2451;49.970;9.068;2023-12-07T06:33:45;0.60;99.90
4874;DHT22;2451;49.970;9.068;2023-12-07T06:36:11;0.70;99.90
4874;DHT22;2451;49.970;9.068;2023-12-07T06:38:36;0.70;99.90
4874;DHT22;2451;49.970;9.068;2023-12-07T06:41:03;0.70;99.90
4874;DHT22;2451;49.970;9.068;2023-12-07T06:43:28;0.70;99.90
4874;DHT22;2451;49.970;9.068;2023-12-07T06:45:54;0.60;99.90
4874;DHT22;2451;49.970;9.068;2023-12-07T06:48:20;0.60;99.90
4874;DHT22;2451;49.970;9.068;2023-12-07T06:50:46;0.50;99.90
4874;DHT22;2451;49.970;9.068;2023-12-07T06:53:11;0.60;99.90
4874;DHT22;2451;49.970;9.068;2023-12-07T06:55:37;0.60;99.90
4874;DHT22;2451;49.970;9.068;2023-12-07T06:58:02;0.70;99.90
4874;DHT22;2451;49.970;9.068;2023-12-07T07:00:28;0.70;99.90
4874;DHT22;2451;49.970;9.068;2023-12-07T07:02:53;0.70;99.90
4874;DHT22;2451;49.970;9.068;2023-12-07T07:05:19;0.70;99.90
4874;DHT22;2451;49.970;9.068;2023-12-07T07:07:45;0.70;99.90
4874;DHT22;2451;49.970;9.068;2023-12-07T07:10:10;0.70;99.90
4874;DHT22;2451;49.970;9.068;2023-12-07T07:12:37;0.70;99.90
4874;DHT22;2451;49.970;9.068;2023-12-07T07:15:03;0.70;99.90
4874;DHT22;2451;49.970;9.068;2023-12-07T07:17:29;0.70;99.90
4874;DHT22;2451;49.970;9.068;2023-12-07T07:19:54;0.70;99.90
4874;DHT22;2451;49.970;9.068;2023-12-07T07:22:21;0.70;99.90
4874;DHT22;2451;49.970;9.068;2023-12-07T07:24:47;0.70;99.90
4874;DHT22;2451;49.970;9.068;2023-12-07T07:27:12;0.70;99.90
4874;DHT22;2451;49.970;9.068;2023-12-07T07:29:38;0.70;99.90
4874;DHT22;2451;49.970;9.068;2023-12-07T07:32:05;0.70;99.90
4874;DHT22;2451;49.970;9.068;2023-12-07T07:34:31;0.70;99.90
4874;DHT22;2451;49.970;9.068;2023-12-07T07:36:56;0.70;99.90
4874;DHT22;2451;49.970;9.068;2023-12-07T07:39:22;0.80;99.90
4874;DHT22;2451;49.970;9.068;2023-12-07T07:41:47;0.70;99.90
4874;DHT22;2451;49.970;9.068;2023-12-07T07:44:13;0.80;99.90
4874;DHT22;2451;49.970;9.068;2023-12-07T07:46:40;0.80;99.90
4874;DHT22;2451;49.970;9.068;2023-12-07T07:49:06;0.90;99.90
4874;DHT22;2451;49.970;9.068;2023-12-07T07:51:31;1.00;99.90
4874;DHT22;2451;49.970;9.068;2023-12-07T07:53:59;1.00;99.90
4874;DHT22;2451;49.970;9.068;2023-12-07T07:56:24;1.10;99.90
4874;DHT22;2451;49.970;9.068;2023-12-07T07:58:50;1.10;99.90
4874;DHT22;2451;49.970;9.068;2023-12-07T08:01:16;1.10;99.90
4874;DHT22;2451;49.970;9.068;2023-12-07T08:03:41;1.10;99.90
4874;DHT22;2451;49.970;9.068;2023-12-07T08:06:07;1.10;99.90
4874;DHT22;2451;49.970;9.068;2023-12-07T08:08:34;1.20;99.90
4874;DHT22;2451;49.970;9.068;2023-12-07T08:10:59;1.20;99.90
4874;DHT22;2451;49.970;9.068;2023-12-07T08:13:26;1.20;99.90
4874;DHT22;2451;49.970;9.068;2023-12-07T08:15:53;1.20;99.90
4874;DHT22;2451;49.970;9.068;2023-12-07T08:18:18;1.20;99.90
4874;DHT22;2451;49.970;9.068;2023-12-07T08:20:44;1.20;99.90
4874;DHT22;2451;49.970;9.068;2023-12-07T08:23:09;1.10;99.90
4874;DHT22;2451;49.970;9.068;2023-12-07T08:25:38;1.10;99.90
4874;DHT22;2451;49.970;9.068;2023-12-07T08:28:03;1.10;99.90
4874;DHT22;2451;49.970;9.068;2023-12-07T08:30:29;1.00;99.90
4874;DHT22;2451;49.970;9.068;2023-12-07T08:32:55;1.00;99.90
4874;DHT22;2451;49.970;9.068;2023-12-07T08:35:20;0.80;99.90
4874;DHT22;2451;49.970;9.068;2023-12-07T08:37:48;0.80;99.90
4874;DHT22;2451;49.970;9.068;2023-12-07T08:40:13;0.80;99.90
4874;DHT22;2451;49.970;9.068;2023-12-07T08:42:40;0.80;99.90
4874;DHT22;2451;49.970;9.068;2023-12-07T08:45:06;0.80;99.90
4874;DHT22;2451;49.970;9.068;2023-12-07T08:47:34;0.80;99.90
4874;DHT22;2451;49.970;9.068;2023-12-07T08:49:59;0.80;99.90
4874;DHT22;2451;49.970;9.068;2023-12-07T08:52:25;0.80;99.90
4874;DHT22;2451;49.970;9.068;2023-12-07T08:54:50;0.80;99.90
4874;DHT22;2451;49.970;9.068;2023-12-07T08:57:18;0.90;99.90
4874;DHT22;2451;49.970;9.068;2023-12-07T08:59:43;1.00;99.90
4874;DHT22;2451;49.970;9.068;2023-12-07T09:02:09;1.00;99.90
4874;DHT22;2451;49.970;9.068;2023-12-07T09:04:34;1.00;99.90
4874;DHT22;2451;49.970;9.068;2023-12-07T09:07:00;1.00;99.90
4874;DHT22;2451;49.970;9.068;2023-12-07T09:09:25;1.00;99.90
4874;DHT22;2451;49.970;9.068;2023-12-07T09:11:51;1.00;99.90
4874;DHT22;2451;49.970;9.068;2023-12-07T09:14:16;1.00;99.90
4874;DHT22;2451;49.970;9.068;2023-12-07T09:16:45;1.10;99.90
4874;DHT22;2451;49.970;9.068;2023-12-07T09:19:14;1.10;99.90
4874;DHT22;2451;49.970;9.068;2023-12-07T09:21:40;1.10;99.90
4874;DHT22;2451;49.970;9.068;2023-12-07T09:24:06;1.00;99.90
4874;DHT22;2451;49.970;9.068;2023-12-07T09:26:32;1.10;99.90
4874;DHT22;2451;49.970;9.068;2023-12-07T09:28:58;1.00;99.90
4874;DHT22;2451;49.970;9.068;2023-12-07T09:31:23;1.10;99.90
4874;DHT22;2451;49.970;9.068;2023-12-07T09:33:49;1.20;99.90
4874;DHT22;2451;49.970;9.068;2023-12-07T09:36:17;1.30;99.90
4874;DHT22;2451;49.970;9.068;2023-12-07T09:38:44;1.40;99.90
4874;DHT22;2451;49.970;9.068;2023-12-07T09:41:10;1.40;99.90
4874;DHT22;2451;49.970;9.068;2023-12-07T09:43:36;1.40;99.90
4874;DHT22;2451;49.970;9.068;2023-12-07T09:46:01;1.40;99.90
4874;DHT22;2451;49.970;9.068;2023-12-07T09:48:27;1.50;99.90
4874;DHT22;2451;49.970;9.068;2023-12-07T09:50:55;1.50;99.90
4874;DHT22;2451;49.970;9.068;2023-12-07T09:53:21;1.50;99.90
4874;DHT22;2451;49.970;9.068;2023-12-07T09:55:47;1.50;99.90
4874;DHT22;2451;49.970;9.068;2023-12-07T09:58:12;1.50;99.90
4874;DHT22;2451;49.970;9.068;2023-12-07T10:00:38;1.50;99.90
4874;DHT22;2451;49.970;9.068;2023-12-07T10:03:05;1.50;99.90
4874;DHT22;2451;49.970;9.068;2023-12-07T10:05:34;1.50;99.90
4874;DHT22;2451;49.970;9.068;2023-12-07T10:08:26;1.50;99.90
4874;DHT22;2451;49.970;9.068;2023-12-07T10:11:02;1.60;99.90
4874;DHT22;2451;49.970;9.068;2023-12-07T10:13:30;1.80;99.90
4874;DHT22;2451;49.970;9.068;2023-12-07T10:16:08;2.00;99.90
4874;DHT22;2451;49.970;9.068;2023-12-07T10:18:35;2.20;99.90
4874;DHT22;2451;49.970;9.068;2023-12-07T10:21:02;2.30;99.90
4874;DHT22;2451;49.970;9.068;2023-12-07T10:23:28;2.30;99.90
4874;DHT22;2451;49.970;9.068;2023-12-07T10:25:58;2.30;99.90
4874;DHT22;2451;49.970;9.068;2023-12-07T10:28:23;2.20;99.90
4874;DHT22;2451;49.970;9.068;2023-12-07T10:30:50;2.30;99.90
4874;DHT22;2451;49.970;9.068;2023-12-07T10:33:16;2.40;99.90
4874;DHT22;2451;49.970;9.068;2023-12-07T10:35:42;2.40;99.90
4874;DHT22;2451;49.970;9.068;2023-12-07T10:38:09;2.50;99.90
4874;DHT22;2451;49.970;9.068;2023-12-07T10:40:34;2.40;99.90
4874;DHT22;2451;49.970;9.068;2023-12-07T10:43:02;2.50;99.90
4874;DHT22;2451;49.970;9.068;2023-12-07T10:45:30;2.60;99.90
4874;DHT22;2451;49.970;9.068;2023-12-07T10:48:06;2.70;99.90
4874;DHT22;2451;49.970;9.068;2023-12-07T10:50:35;2.70;99.90
4874;DHT22;2451;49.970;9.068;2023-12-07T10:53:09;2.70;99.90
4874;DHT22;2451;49.970;9.068;2023-12-07T10:55:42;2.70;99.90
4874;DHT22;2451;49.970;9.068;2023-12-07T10:58:11;2.60;99.90
4874;DHT22;2451;49.970;9.068;2023-12-07T11:00:40;2.60;99.90
4874;DHT22;2451;49.970;9.068;2023-12-07T11:03:07;2.60;99.90
4874;DHT22;2451;49.970;9.068;2023-12-07T11:05:33;2.60;99.90
4874;DHT22;2451;49.970;9.068;2023-12-07T11:08:05;2.70;99.90
4874;DHT22;2451;49.970;9.068;2023-12-07T11:10:45;2.80;99.90
4874;DHT22;2451;49.970;9.068;2023-12-07T11:13:20;2.90;99.90
4874;DHT22;2451;49.970;9.068;2023-12-07T11:15:48;3.10;99.90
4874;DHT22;2451;49.970;9.068;2023-12-07T11:18:13;3.10;99.90
4874;DHT22;2451;49.970;9.068;2023-12-07T11:20:46;3.10;99.90
4874;DHT22;2451;49.970;9.068;2023-12-07T11:23:18;3.30;99.90
4874;DHT22;2451;49.970;9.068;2023-12-07T11:25:47;3.60;99.90
4874;DHT22;2451;49.970;9.068;2023-12-07T11:28:14;3.80;99.90
4874;DHT22;2451;49.970;9.068;2023-12-07T11:30:44;3.80;99.90
4874;DHT22;2451;49.970;9.068;2023-12-07T11:33:10;3.70;99.90
4874;DHT22;2451;49.970;9.068;2023-12-07T11:36:03;3.60;99.90
4874;DHT22;2451;49.970;9.068;2023-12-07T11:38:29;3.60;99.90
4874;DHT22;2451;49.970;9.068;2023-12-07T11:40:56;3.60;99.90
4874;DHT22;2451;49.970;9.068;2023-12-07T11:46:00;3.70;99.90
4874;DHT22;2451;49.970;9.068;2023-12-07T11:48:26;3.90;99.90
4874;DHT22;2451;49.970;9.068;2023-12-07T11:51:04;4.00;99.90
4874;DHT22;2451;49.970;9.068;2023-12-07T11:53:34;3.80;99.90
4874;DHT22;2451;49.970;9.068;2023-12-07T11:56:01;3.40;99.90
4874;DHT22;2451;49.970;9.068;2023-12-07T11:58:29;3.30;99.90
4874;DHT22;2451;49.970;9.068;2023-12-07T12:00:55;3.20;99.90
4874;DHT22;2451;49.970;9.068;2023-12-07T12:03:22;3.20;99.90
4874;DHT22;2451;49.970;9.068;2023-12-07T12:05:48;3.10;99.90
4874;DHT22;2451;49.970;9.068;2023-12-07T12:08:15;3.10;99.90
4874;DHT22;2451;49.970;9.068;2023-12-07T12:10:41;3.10;99.90
4874;DHT22;2451;49.970;9.068;2023-12-07T12:13:08;3.10;99.90
4874;DHT22;2451;49.970;9.068;2023-12-07T12:15:34;3.10;99.90
4874;DHT22;2451;49.970;9.068;2023-12-07T12:18:00;3.10;99.90
4874;DHT22;2451;49.970;9.068;2023-12-07T12:20:27;3.00;99.90
4874;DHT22;2451;49.970;9.068;2023-12-07T12:22:52;2.90;99.90
4874;DHT22;2451;49.970;9.068;2023-12-07T12:25:22;2.80;99.90
4874;DHT22;2451;49.970;9.068;2023-12-07T12:27:52;2.70;99.90
4874;DHT22;2451;49.970;9.068;2023-12-07T12:30:18;2.70;99.90
4874;DHT22;2451;49.970;9.068;2023-12-07T12:32:47;2.70;99.90
4874;DHT22;2451;49.970;9.068;2023-12-07T12:35:13;2.70;99.90
4874;DHT22;2451;49.970;9.068;2023-12-07T12:37:41;2.60;99.90
4874;DHT22;2451;49.970;9.068;2023-12-07T12:40:08;2.60;99.90
4874;DHT22;2451;49.970;9.068;2023-12-07T12:42:34;2.60;99.90
4874;DHT22;2451;49.970;9.068;2023-12-07T12:45:07;2.50;99.90
4874;DHT22;2451;49.970;9.068;2023-12-07T12:47:33;2.40;99.90
4874;DHT22;2451;49.970;9.068;2023-12-07T12:49:59;2.40;99.90
4874;DHT22;2451;49.970;9.068;2023-12-07T12:52:25;2.30;99.90
4874;DHT22;2451;49.970;9.068;2023-12-07T12:54:52;2.30;99.90
4874;DHT22;2451;49.970;9.068;2023-12-07T12:57:17;2.30;99.90
4874;DHT22;2451;49.970;9.068;2023-12-07T12:59:44;2.30;99.90
4874;DHT22;2451;49.970;9.068;2023-12-07T13:02:10;2.30;99.90
4874;DHT22;2451;49.970;9.068;2023-12-07T13:04:37;2.40;99.90
4874;DHT22;2451;49.970;9.068;2023-12-07T13:07:02;2.40;99.90
4874;DHT22;2451;49.970;9.068;2023-12-07T13:09:28;2.30;99.90
4874;DHT22;2451;49.970;9.068;2023-12-07T13:11:54;2.30;99.90
4874;DHT22;2451;49.970;9.068;2023-12-07T13:14:19;2.30;99.90
4874;DHT22;2451;49.970;9.068;2023-12-07T13:16:45;2.30;99.90
4874;DHT22;2451;49.970;9.068;2023-12-07T13:19:10;2.40;99.90
4874;DHT22;2451;49.970;9.068;2023-12-07T13:21:36;2.40;99.90
4874;DHT22;2451;49.970;9.068;2023-12-07T13:24:02;2.40;99.90
4874;DHT22;2451;49.970;9.068;2023-12-07T13:26:30;2.40;99.90
4874;DHT22;2451;49.970;9.068;2023-12-07T13:28:55;2.40;99.90
4874;DHT22;2451;49.970;9.068;2023-12-07T13:31:21;2.40;99.90
4874;DHT22;2451;49.970;9.068;2023-12-07T13:33:47;2.30;99.90
4874;DHT22;2451;49.970;9.068;2023-12-07T13:36:12;2.30;99.90
4874;DHT22;2451;49.970;9.068;2023-12-07T13:38:39;2.30;99.90
4874;DHT22;2451;49.970;9.068;2023-12-07T13:41:05;2.30;99.90
4874;DHT22;2451;49.970;9.068;2023-12-07T13:43:32;2.30;99.90
4874;DHT22;2451;49.970;9.068;2023-12-07T13:45:59;2.20;99.90
4874;DHT22;2451;49.970;9.068;2023-12-07T13:48:24;2.20;99.90
4874;DHT22;2451;49.970;9.068;2023-12-07T13:50:50;2.20;99.90
4874;DHT22;2451;49.970;9.068;2023-12-07T13:53:15;2.20;99.90
4874;DHT22;2451;49.970;9.068;2023-12-07T13:55:41;2.20;99.90
4874;DHT22;2451;49.970;9.068;2023-12-07T13:58:07;2.20;99.90
4874;DHT22;2451;49.970;9.068;2023-12-07T14:00:33;2.20;99.90
4874;DHT22;2451;49.970;9.068;2023-12-07T14:02:59;2.20;99.90
4874;DHT22;2451;49.970;9.068;2023-12-07T14:05:25;2.20;99.90
4874;DHT22;2451;49.970;9.068;2023-12-07T14:07:51;2.20;99.90
4874;DHT22;2451;49.970;9.068;2023-12-07T14:10:16;2.20;99.90
4874;DHT22;2451;49.970;9.068;2023-12-07T14:12:42;2.20;99.90
4874;DHT22;2451;49.970;9.068;2023-12-07T14:15:08;2.20;99.90
4874;DHT22;2451;49.970;9.068;2023-12-07T14:17:34;2.30;99.90
4874;DHT22;2451;49.970;9.068;2023-12-07T14:20:04;2.20;99.90
4874;DHT22;2451;49.970;9.068;2023-12-07T14:22:29;2.20;99.90
4874;DHT22;2451;49.970;9.068;2023-12-07T14:24:55;2.20;99.90
4874;DHT22;2451;49.970;9.068;2023-12-07T14:27:20;2.30;99.90
4874;DHT22;2451;49.970;9.068;2023-12-07T14:29:46;2.20;99.90
4874;DHT22;2451;49.970;9.068;2023-12-07T14:32:12;2.20;99.90
4874;DHT22;2451;49.970;9.068;2023-12-07T14:34:37;2.10;99.90
4874;DHT22;2451;49.970;9.068;2023-12-07T14:37:03;2.10;99.90
4874;DHT22;2451;49.970;9.068;2023-12-07T14:39:30;2.20;99.90
4874;DHT22;2451;49.970;9.068;2023-12-07T14:41:56;2.10;99.90
4874;DHT22;2451;49.970;9.068;2023-12-07T14:44:22;2.10;99.90
4874;DHT22;2451;49.970;9.068;2023-12-07T14:46:48;2.10;99.90
4874;DHT22;2451;49.970;9.068;2023-12-07T14:49:18;2.10;99.90
4874;DHT22;2451;49.970;9.068;2023-12-07T14:51:46;2.10;99.90
4874;DHT22;2451;49.970;9.068;2023-12-07T14:54:12;2.10;99.90
4874;DHT22;2451;49.970;9.068;2023-12-07T14:56:38;2.00;99.90
4874;DHT22;2451;49.970;9.068;2023-12-07T14:59:05;2.00;99.90
4874;DHT22;2451;49.970;9.068;2023-12-07T15:01:30;2.00;99.90
4874;DHT22;2451;49.970;9.068;2023-12-07T15:03:57;2.00;99.90
4874;DHT22;2451;49.970;9.068;2023-12-07T15:06:23;1.90;99.90
4874;DHT22;2451;49.970;9.068;2023-12-07T15:08:49;1.90;99.90
4874;DHT22;2451;49.970;9.068;2023-12-07T15:11:15;1.90;99.90
4874;DHT22;2451;49.970;9.068;2023-12-07T15:13:41;2.00;99.90
4874;DHT22;2451;49.970;9.068;2023-12-07T15:16:07;1.90;99.90
4874;DHT22;2451;49.970;9.068;2023-12-07T15:18:33;2.00;99.90
4874;DHT22;2451;49.970;9.068;2023-12-07T15:21:01;2.00;99.90
4874;DHT22;2451;49.970;9.068;2023-12-07T15:23:27;2.00;99.90
4874;DHT22;2451;49.970;9.068;2023-12-07T15:25:52;2.00;99.90
4874;DHT22;2451;49.970;9.068;2023-12-07T15:28:20;2.00;99.90
4874;DHT22;2451;49.970;9.068;2023-12-07T15:30:45;2.00;99.90
4874;DHT22;2451;49.970;9.068;2023-12-07T15:33:11;1.90;99.90
4874;DHT22;2451;49.970;9.068;2023-12-07T15:35:39;1.80;99.90
4874;DHT22;2451;49.970;9.068;2023-12-07T15:38:05;1.80;99.90
4874;DHT22;2451;49.970;9.068;2023-12-07T15:40:30;1.70;99.90
4874;DHT22;2451;49.970;9.068;2023-12-07T15:42:56;1.70;99.90
4874;DHT22;2451;49.970;9.068;2023-12-07T15:45:21;1.60;99.90
4874;DHT22;2451;49.970;9.068;2023-12-07T15:47:47;1.60;99.90
4874;DHT22;2451;49.970;9.068;2023-12-07T15:50:13;1.50;99.90
4874;DHT22;2451;49.970;9.068;2023-12-07T15:52:38;1.50;99.90
4874;DHT22;2451;49.970;9.068;2023-12-07T15:55:04;1.50;99.90
4874;DHT22;2451;49.970;9.068;2023-12-07T15:57:31;1.40;99.90
4874;DHT22;2451;49.970;9.068;2023-12-07T15:59:56;1.40;99.90
4874;DHT22;2451;49.970;9.068;2023-12-07T16:02:22;1.40;99.90
4874;DHT22;2451;49.970;9.068;2023-12-07T16:04:48;1.40;99.90
4874;DHT22;2451;49.970;9.068;2023-12-07T16:07:13;1.30;99.90
4874;DHT22;2451;49.970;9.068;2023-12-07T16:09:39;1.40;99.90
4874;DHT22;2451;49.970;9.068;2023-12-07T16:12:07;1.30;99.90
4874;DHT22;2451;49.970;9.068;2023-12-07T16:14:33;1.40;99.90
4874;DHT22;2451;49.970;9.068;2023-12-07T16:16:59;1.40;99.90